createdAt,value
2022-10-22T00:01:38.928Z,23.88
2022-10-22T00:04:06.189Z,26.25
2022-10-22T00:06:33.494Z,23.42
2022-10-22T00:09:00.593Z,23.83
2022-10-22T00:11:27.214Z,23.92
2022-10-22T00:13:53.974Z,22.60
2022-10-22T00:16:20.681Z,24.15
2022-10-22T00:18:47.280Z,21.80
2022-10-22T00:21:14.136Z,27.02
2022-10-22T00:23:42.597Z,27.02
2022-10-22T00:26:09.915Z,22.65
2022-10-22T00:28:36.743Z,23.83
2022-10-22T00:31:03.300Z,21.13
2022-10-22T00:33:30.336Z,25.57
2022-10-22T00:35:57.023Z,23.75
2022-10-22T00:38:23.751Z,22.60
2022-10-22T00:40:50.529Z,24.33
2022-10-22T00:43:19.437Z,17.63
2022-10-22T00:45:46.833Z,25.40
2022-10-22T00:48:19.015Z,23.65
2022-10-22T00:50:56.538Z,24.95
2022-10-22T00:53:43.181Z,24.10
2022-10-22T00:56:10.161Z,23.88
2022-10-22T00:58:39.813Z,22.77
2022-10-22T01:01:09.206Z,22.30
2022-10-22T01:03:36.059Z,24.77
2022-10-22T01:06:05.093Z,22.55
2022-10-22T01:08:40.840Z,20.90
2022-10-22T01:11:50.290Z,24.17
2022-10-22T01:14:42.242Z,24.60
2022-10-22T01:17:46.191Z,25.52
2022-10-22T01:20:27.832Z,25.00
2022-10-22T01:23:15.819Z,23.35
2022-10-22T01:25:58.555Z,24.83
2022-10-22T01:28:59.244Z,26.63
2022-10-22T01:31:39.489Z,27.58
2022-10-22T01:34:08.347Z,28.00
2022-10-22T01:36:37.437Z,26.25
2022-10-22T01:39:05.566Z,25.23
2022-10-22T01:41:32.182Z,25.55
2022-10-22T01:43:58.700Z,27.27
2022-10-22T01:46:28.206Z,26.35
2022-10-22T01:49:23.843Z,25.85
2022-10-22T01:52:25.000Z,25.95
2022-10-22T01:55:32.567Z,24.33
2022-10-22T01:58:22.648Z,23.80
2022-10-22T02:01:07.508Z,27.60
2022-10-22T02:03:45.088Z,27.10
2022-10-22T02:06:18.781Z,26.65
2022-10-22T02:08:47.027Z,21.75
2022-10-22T02:11:15.643Z,21.35
2022-10-22T02:13:51.184Z,20.63
2022-10-22T02:16:34.412Z,23.77
2022-10-22T02:19:06.772Z,22.13
2022-10-22T02:21:33.372Z,22.60
2022-10-22T02:24:00.350Z,20.88
2022-10-22T02:26:39.204Z,24.65
2022-10-22T02:29:13.183Z,22.80
2022-10-22T02:31:43.065Z,22.27
2022-10-22T02:34:14.666Z,22.85
2022-10-22T02:36:46.779Z,25.60
2022-10-22T02:41:48.760Z,24.65
2022-10-22T02:44:15.592Z,25.00
2022-10-22T02:46:43.340Z,28.05
2022-10-22T02:49:09.864Z,25.73
2022-10-22T02:51:36.428Z,28.90
2022-10-22T02:54:03.005Z,29.57
2022-10-22T02:56:29.511Z,30.20
2022-10-22T02:58:56.059Z,27.83
2022-10-22T03:01:22.617Z,24.45
2022-10-22T03:03:49.305Z,30.77
2022-10-22T03:06:16.641Z,33.75
2022-10-22T03:11:09.752Z,28.33
2022-10-22T03:13:36.319Z,29.35
2022-10-22T03:16:02.929Z,29.70
2022-10-22T03:18:29.446Z,21.17
2022-10-22T03:21:23.356Z,22.90
2022-10-22T03:23:50.129Z,22.08
2022-10-22T03:26:16.699Z,21.70
2022-10-22T03:28:43.616Z,19.60
2022-10-22T03:31:10.121Z,21.65
2022-10-22T03:33:36.656Z,24.30
2022-10-22T03:36:03.234Z,24.07
2022-10-22T03:38:30.431Z,25.27
2022-10-22T03:40:57.534Z,28.67
2022-10-22T03:43:24.245Z,26.50
2022-10-22T03:45:50.798Z,25.67
2022-10-22T03:48:17.288Z,26.83
2022-10-22T03:50:43.804Z,32.27
2022-10-22T03:53:10.669Z,29.88
2022-10-22T03:55:38.422Z,29.05
2022-10-22T03:58:05.480Z,28.10
2022-10-22T04:00:34.344Z,29.85
2022-10-22T04:03:01.072Z,27.60
2022-10-22T04:05:27.649Z,20.52
2022-10-22T04:07:54.215Z,26.43
2022-10-22T04:10:20.758Z,28.53
2022-10-22T04:12:48.539Z,30.50
2022-10-22T04:15:15.128Z,28.15
2022-10-22T04:17:41.876Z,21.73
2022-10-22T04:20:09.229Z,25.45
2022-10-22T04:22:36.216Z,25.10
2022-10-22T04:25:04.329Z,24.42
2022-10-22T04:27:32.559Z,23.27
2022-10-22T04:29:59.154Z,26.60
2022-10-22T04:32:26.911Z,26.30
2022-10-22T04:34:53.408Z,23.20
2022-10-22T04:37:20.477Z,23.83
2022-10-22T04:39:46.999Z,27.38
2022-10-22T04:42:13.782Z,24.83
2022-10-22T04:44:40.296Z,20.55
2022-10-22T04:47:06.800Z,21.93
2022-10-22T04:49:33.288Z,20.50
2022-10-22T04:51:59.830Z,22.67
2022-10-22T04:54:29.037Z,25.90
2022-10-22T04:56:58.751Z,19.00
2022-10-22T04:59:25.325Z,21.47
2022-10-22T05:01:51.896Z,20.42
2022-10-22T05:04:19.746Z,21.90
2022-10-22T05:06:46.644Z,23.42
2022-10-22T05:09:17.097Z,22.00
2022-10-22T05:11:46.375Z,24.80
2022-10-22T05:14:13.109Z,39.60
2022-10-22T05:16:39.804Z,34.75
2022-10-22T05:19:07.950Z,35.90
2022-10-22T05:21:34.760Z,30.55
2022-10-22T05:24:01.306Z,37.25
2022-10-22T05:26:29.126Z,48.17
2022-10-22T05:28:56.779Z,46.05
2022-10-22T05:31:23.746Z,54.45
2022-10-22T05:33:50.335Z,42.13
2022-10-22T05:36:22.312Z,47.80
2022-10-22T05:38:49.357Z,40.22
2022-10-22T05:41:18.647Z,40.92
2022-10-22T05:43:45.598Z,39.80
2022-10-22T05:46:22.248Z,41.17
2022-10-22T05:48:58.330Z,39.17
2022-10-22T05:51:26.610Z,41.97
2022-10-22T05:53:58.072Z,37.58
2022-10-22T05:56:26.187Z,34.22
2022-10-22T05:58:53.236Z,27.75
2022-10-22T06:01:25.600Z,31.45
2022-10-22T06:03:58.099Z,25.25
2022-10-22T06:06:27.271Z,26.85
2022-10-22T06:08:55.597Z,21.75
2022-10-22T06:11:23.493Z,22.40
2022-10-22T06:13:50.899Z,23.45
2022-10-22T06:18:44.023Z,20.95
2022-10-22T06:21:13.105Z,22.95
2022-10-22T06:23:40.464Z,30.02
2022-10-22T06:28:34.028Z,32.65
2022-10-22T06:31:02.684Z,31.38
2022-10-22T06:33:31.222Z,29.50
2022-10-22T06:36:08.977Z,29.13
2022-10-22T06:38:35.535Z,28.08
2022-10-22T06:41:06.836Z,32.73
2022-10-22T06:43:33.387Z,26.45
2022-10-22T06:46:05.987Z,27.27
2022-10-22T06:48:33.399Z,26.45
2022-10-22T06:53:30.603Z,27.90
2022-10-22T06:55:57.401Z,24.38
2022-10-22T06:58:24.347Z,26.83
2022-10-22T07:01:01.084Z,40.20
2022-10-22T07:03:27.651Z,21.42
2022-10-22T07:05:54.189Z,20.53
2022-10-22T07:08:20.689Z,19.37
2022-10-22T07:10:47.194Z,20.30
2022-10-22T07:13:13.896Z,14.65
2022-10-22T07:15:40.388Z,15.47
2022-10-22T07:18:06.898Z,13.23
2022-10-22T07:20:33.454Z,12.53
2022-10-22T07:22:59.946Z,12.33
2022-10-22T07:25:26.484Z,61.90
2022-10-22T07:27:52.984Z,20.10
2022-10-22T07:30:19.467Z,12.57
2022-10-22T07:32:45.976Z,14.17
2022-10-22T07:35:12.489Z,13.83
2022-10-22T07:37:39.470Z,17.00
2022-10-22T07:40:06.851Z,21.00
2022-10-22T07:42:33.420Z,13.35
2022-10-22T07:44:59.946Z,40.70
2022-10-22T07:47:26.559Z,31.27
2022-10-22T07:49:53.060Z,19.93
2022-10-22T07:52:19.551Z,16.13
2022-10-22T07:54:46.028Z,23.63
2022-10-22T07:57:12.561Z,18.42
2022-10-22T07:59:39.059Z,21.40
2022-10-22T08:02:05.592Z,17.07
2022-10-22T08:04:32.124Z,17.70
2022-10-22T08:06:58.640Z,19.17
2022-10-22T08:09:25.158Z,15.83
2022-10-22T08:11:51.781Z,19.27
2022-10-22T08:14:18.307Z,21.80
2022-10-22T08:16:44.977Z,19.20
2022-10-22T08:19:11.534Z,15.70
2022-10-22T08:21:38.041Z,15.63
2022-10-22T08:24:04.945Z,15.32
2022-10-22T08:26:31.583Z,13.63
2022-10-22T08:28:58.118Z,18.35
2022-10-22T08:31:24.676Z,22.43
2022-10-22T08:33:51.238Z,14.40
2022-10-22T08:36:17.747Z,19.03
2022-10-22T08:38:44.285Z,16.57
2022-10-22T08:41:15.933Z,54.60
2022-10-22T08:43:54.324Z,18.17
2022-10-22T08:46:48.105Z,16.30
2022-10-22T08:49:25.565Z,13.82
2022-10-22T08:51:52.505Z,13.85
2022-10-22T08:54:34.131Z,16.92
2022-10-22T08:57:19.137Z,15.57
2022-10-22T09:00:06.054Z,12.70
2022-10-22T09:05:15.177Z,14.60
2022-10-22T09:07:44.008Z,15.80
2022-10-22T09:10:12.961Z,10.55
2022-10-22T09:12:39.531Z,14.43
2022-10-22T09:15:06.695Z,11.63
2022-10-22T09:17:53.871Z,14.90
2022-10-22T09:20:26.336Z,11.98
2022-10-22T09:23:20.446Z,16.35
2022-10-22T09:25:49.160Z,13.10
2022-10-22T09:28:16.057Z,15.48
2022-10-22T09:30:43.414Z,14.40
2022-10-22T09:33:09.859Z,19.08
2022-10-22T09:35:46.353Z,14.87
2022-10-22T09:38:15.199Z,23.33
2022-10-22T09:40:48.378Z,19.60
2022-10-22T09:43:15.307Z,28.15
2022-10-22T09:45:43.103Z,21.45
2022-10-22T09:48:11.773Z,14.88
2022-10-22T09:50:54.938Z,16.00
2022-10-22T09:53:30.751Z,16.08
2022-10-22T09:55:59.679Z,14.38
2022-10-22T09:58:27.112Z,15.93
2022-10-22T10:03:26.337Z,12.15
2022-10-22T10:06:00.163Z,14.45
2022-10-22T10:08:29.831Z,13.65
2022-10-22T10:11:05.575Z,23.83
2022-10-22T10:13:53.655Z,28.30
2022-10-22T10:16:44.910Z,27.00
2022-10-22T10:19:37.693Z,37.40
2022-10-22T10:22:23.960Z,23.13
2022-10-22T10:25:06.958Z,15.25
2022-10-22T10:28:00.407Z,13.73
2022-10-22T10:30:27.451Z,15.80
2022-10-22T10:33:12.202Z,25.05
2022-10-22T10:35:52.301Z,32.33
2022-10-22T10:38:29.530Z,17.10
2022-10-22T10:41:13.060Z,14.20
2022-10-22T10:44:11.915Z,12.23
2022-10-22T10:47:08.204Z,13.25
2022-10-22T10:49:36.159Z,14.40
2022-10-22T10:52:24.839Z,58.20
2022-10-22T10:55:12.746Z,19.40
2022-10-22T10:57:42.536Z,24.33
2022-10-22T11:00:20.347Z,15.93
2022-10-22T11:03:14.825Z,17.40
2022-10-22T11:05:53.039Z,14.55
2022-10-22T11:08:27.344Z,11.32
2022-10-22T11:11:21.609Z,14.75
2022-10-22T11:14:11.267Z,17.27
2022-10-22T11:16:47.347Z,14.65
2022-10-22T11:19:46.046Z,14.55
2022-10-22T11:22:14.167Z,14.13
2022-10-22T11:24:52.669Z,13.35
2022-10-22T11:27:31.948Z,13.63
2022-10-22T11:30:06.376Z,12.93
2022-10-22T11:32:33.447Z,8.20
2022-10-22T11:35:04.862Z,9.93
2022-10-22T11:37:35.256Z,11.02
2022-10-22T11:40:14.655Z,8.95
2022-10-22T11:42:47.892Z,12.52
2022-10-22T11:45:14.409Z,10.57
2022-10-22T11:48:19.354Z,8.40
2022-10-22T11:50:56.636Z,13.63
2022-10-22T11:53:26.069Z,8.88
2022-10-22T11:55:56.136Z,8.20
2022-10-22T11:58:33.272Z,11.90
2022-10-22T12:01:02.739Z,8.35
2022-10-22T12:03:32.409Z,10.70
2022-10-22T12:06:04.736Z,7.18
2022-10-22T12:08:33.148Z,9.38
2022-10-22T12:11:13.357Z,17.73
2022-10-22T12:14:02.770Z,11.73
2022-10-22T12:16:54.246Z,10.88
2022-10-22T12:19:27.478Z,8.02
2022-10-22T12:22:02.034Z,16.15
2022-10-22T12:24:35.277Z,8.50
2022-10-22T12:27:01.971Z,11.50
2022-10-22T12:29:32.258Z,9.48
2022-10-22T12:32:03.309Z,8.90
2022-10-22T12:34:30.006Z,8.07
2022-10-22T12:36:56.553Z,4.95
2022-10-22T12:39:27.431Z,7.78
2022-10-22T12:41:54.993Z,11.20
2022-10-22T12:44:21.720Z,5.45
2022-10-22T12:46:53.008Z,7.30
2022-10-22T12:49:27.436Z,9.50
2022-10-22T12:51:54.748Z,7.15
2022-10-22T12:56:57.273Z,7.00
2022-10-22T12:59:35.979Z,6.95
2022-10-22T13:02:11.869Z,9.20
2022-10-22T13:04:38.703Z,11.80
2022-10-22T13:07:17.115Z,9.00
2022-10-22T13:09:59.848Z,11.10
2022-10-22T13:12:28.843Z,7.60
2022-10-22T13:14:55.384Z,7.97
2022-10-22T13:17:40.856Z,11.60
2022-10-22T13:20:22.077Z,6.50
2022-10-22T13:22:55.829Z,7.20
2022-10-22T13:25:31.788Z,9.70
2022-10-22T13:28:02.861Z,5.35
2022-10-22T13:30:37.111Z,11.30
2022-10-22T13:33:17.687Z,7.72
2022-10-22T13:35:44.255Z,9.25
2022-10-22T13:38:19.900Z,12.75
2022-10-22T13:40:46.889Z,8.25
2022-10-22T13:43:13.856Z,9.90
2022-10-22T13:45:40.460Z,8.93
2022-10-22T13:48:12.894Z,8.48
2022-10-22T13:50:39.463Z,8.43
2022-10-22T13:53:06.484Z,6.03
2022-10-22T13:55:32.997Z,6.63
2022-10-22T13:58:13.379Z,7.38
2022-10-22T14:00:43.836Z,9.02
2022-10-22T14:03:12.698Z,15.07
2022-10-22T14:05:39.288Z,10.02
2022-10-22T14:08:13.882Z,10.13
2022-10-22T14:10:40.379Z,11.90
2022-10-22T14:13:14.544Z,10.37
2022-10-22T14:15:42.889Z,9.13
2022-10-22T14:18:15.456Z,8.30
2022-10-22T14:20:42.694Z,9.07
2022-10-22T14:23:14.267Z,10.65
2022-10-22T14:25:41.382Z,10.00
2022-10-22T14:28:11.038Z,9.75
2022-10-22T14:30:38.022Z,10.13
2022-10-22T14:33:14.005Z,8.70
2022-10-22T14:35:40.500Z,10.05
2022-10-22T14:38:07.030Z,13.10
2022-10-22T14:40:33.643Z,14.02
2022-10-22T14:43:00.146Z,20.88
2022-10-22T14:45:27.387Z,14.03
2022-10-22T14:47:55.684Z,11.88
2022-10-22T14:50:22.468Z,11.02
2022-10-22T14:52:48.992Z,14.20
2022-10-22T14:55:17.351Z,10.77
2022-10-22T14:57:44.458Z,14.02
2022-10-22T15:02:42.598Z,15.32
2022-10-22T15:05:10.241Z,18.85
2022-10-22T15:07:37.787Z,19.83
2022-10-22T15:10:05.654Z,53.70
2022-10-22T15:12:32.807Z,66.00
2022-10-22T15:14:59.556Z,30.50
2022-10-22T15:17:26.532Z,21.67
2022-10-22T15:19:53.286Z,19.58
2022-10-22T15:22:19.808Z,14.45
2022-10-22T15:24:46.388Z,13.13
2022-10-22T15:27:13.840Z,19.15
2022-10-22T15:29:41.935Z,15.95
2022-10-22T15:32:12.227Z,16.63
2022-10-22T15:34:39.808Z,14.48
2022-10-22T15:37:10.682Z,15.35
2022-10-22T15:39:40.666Z,15.88
2022-10-22T15:42:07.712Z,14.77
2022-10-22T15:44:34.356Z,22.05
2022-10-22T15:47:03.792Z,22.15
2022-10-22T15:49:30.493Z,27.85
2022-10-22T15:51:57.060Z,21.88
2022-10-22T15:54:28.111Z,21.88
2022-10-22T15:56:55.855Z,26.38
2022-10-22T15:59:23.011Z,19.55
2022-10-22T16:01:50.091Z,18.27
2022-10-22T16:04:17.168Z,13.57
2022-10-22T16:06:48.058Z,18.08
2022-10-22T16:09:20.691Z,15.63
2022-10-22T16:11:47.429Z,11.38
2022-10-22T16:14:16.361Z,21.08
2022-10-22T16:16:45.935Z,15.40
2022-10-22T16:19:14.459Z,21.30
2022-10-22T16:21:41.555Z,17.27
2022-10-22T16:24:09.651Z,15.68
2022-10-22T16:26:36.349Z,13.10
2022-10-22T16:29:05.576Z,17.27
2022-10-22T16:31:32.105Z,14.60
2022-10-22T16:33:58.681Z,19.60
2022-10-22T16:36:25.686Z,21.70
2022-10-22T16:38:52.268Z,15.57
2022-10-22T16:41:21.863Z,14.88
2022-10-22T16:43:51.174Z,12.80
2022-10-22T16:46:19.798Z,13.57
2022-10-22T16:48:51.947Z,14.40
2022-10-22T16:51:21.516Z,14.50
2022-10-22T16:53:48.942Z,16.98
2022-10-22T16:58:48.888Z,17.83
2022-10-22T17:01:18.177Z,24.58
2022-10-22T17:03:45.559Z,23.95
2022-10-22T17:06:12.207Z,20.70
2022-10-22T17:08:39.816Z,19.15
2022-10-22T17:11:08.716Z,17.05
2022-10-22T17:13:35.595Z,16.85
2022-10-22T17:16:07.343Z,17.10
2022-10-22T17:18:35.696Z,12.35
2022-10-22T17:21:04.667Z,14.13
2022-10-22T17:23:31.440Z,14.73
2022-10-22T17:26:00.052Z,12.15
2022-10-22T17:28:27.138Z,17.33
2022-10-22T17:31:17.155Z,19.17
2022-10-22T17:33:44.601Z,11.30
2022-10-22T17:38:41.516Z,16.80
2022-10-22T17:41:11.469Z,17.60
2022-10-22T17:43:41.253Z,20.67
2022-10-22T17:46:11.284Z,16.38
2022-10-22T17:48:37.899Z,20.13
2022-10-22T17:51:09.229Z,17.27
2022-10-22T17:53:35.900Z,16.45
2022-10-22T17:56:06.980Z,15.00
2022-10-22T17:58:33.516Z,14.43
2022-10-22T18:01:00.196Z,14.60
2022-10-22T18:03:27.974Z,15.98
2022-10-22T18:05:54.917Z,17.25
2022-10-22T18:08:24.106Z,15.05
2022-10-22T18:10:50.662Z,18.55
2022-10-22T18:13:17.222Z,16.27
2022-10-22T18:15:43.743Z,15.50
2022-10-22T18:18:10.263Z,15.43
2022-10-22T18:20:36.774Z,16.23
2022-10-22T18:23:03.709Z,16.37
2022-10-22T18:25:31.787Z,17.00
2022-10-22T18:27:58.413Z,17.27
2022-10-22T18:30:24.891Z,17.13
2022-10-22T18:32:51.812Z,16.07
2022-10-22T18:35:18.362Z,17.73
2022-10-22T18:37:45.082Z,20.93
2022-10-22T18:40:14.576Z,16.73
2022-10-22T18:42:41.703Z,16.85
2022-10-22T18:45:08.866Z,21.08
2022-10-22T18:47:39.257Z,19.15
2022-10-22T18:50:06.222Z,19.85
2022-10-22T18:52:33.053Z,22.65
2022-10-22T18:54:59.575Z,18.90
2022-10-22T18:57:26.103Z,19.00
2022-10-22T18:59:54.688Z,20.73
2022-10-22T19:02:23.828Z,20.90
2022-10-22T19:04:50.447Z,14.27
2022-10-22T19:07:16.956Z,19.85
2022-10-22T19:09:43.779Z,20.73
2022-10-22T19:12:10.514Z,19.48
2022-10-22T19:14:37.128Z,17.85
2022-10-22T19:17:03.779Z,16.35
2022-10-22T19:19:30.365Z,16.40
2022-10-22T19:21:59.419Z,17.07
2022-10-22T19:24:26.920Z,16.35
2022-10-22T19:29:21.159Z,15.43
2022-10-22T19:31:50.575Z,16.50
2022-10-22T19:34:17.436Z,17.65
2022-10-22T19:36:44.088Z,19.52
2022-10-22T19:39:10.635Z,15.48
2022-10-22T19:41:37.349Z,14.50
2022-10-22T19:44:04.080Z,15.40
2022-10-22T19:46:32.588Z,15.60
2022-10-22T19:48:59.736Z,18.20
2022-10-22T19:51:29.817Z,16.48
2022-10-22T19:54:01.659Z,16.00
2022-10-22T19:56:28.859Z,17.17
2022-10-22T19:58:55.516Z,17.02
2022-10-22T20:01:22.682Z,15.85
2022-10-22T20:03:49.685Z,15.02
2022-10-22T20:06:17.988Z,17.10
2022-10-22T20:08:45.795Z,16.92
2022-10-22T20:11:18.896Z,19.85
2022-10-22T20:13:49.593Z,18.08
2022-10-22T20:16:23.221Z,21.15
2022-10-22T20:18:50.960Z,16.65
2022-10-22T20:21:19.377Z,19.77
2022-10-22T20:23:47.047Z,16.77
2022-10-22T20:26:14.071Z,14.88
2022-10-22T20:28:40.588Z,14.52
2022-10-22T20:31:16.076Z,18.10
2022-10-22T20:33:42.914Z,16.55
2022-10-22T20:36:14.269Z,17.63
2022-10-22T20:38:40.784Z,15.15
2022-10-22T20:41:10.637Z,14.80
2022-10-22T20:43:37.293Z,16.85
2022-10-22T20:46:04.323Z,15.35
2022-10-22T20:48:31.769Z,15.23
2022-10-22T20:53:27.660Z,15.20
2022-10-22T20:55:58.563Z,14.38
2022-10-22T20:58:27.063Z,16.45
2022-10-22T21:00:54.816Z,18.33
2022-10-22T21:03:21.427Z,18.40
2022-10-22T21:05:48.040Z,19.83
2022-10-22T21:08:17.463Z,17.57
2022-10-22T21:10:46.472Z,17.65
2022-10-22T21:13:13.513Z,18.70
2022-10-22T21:15:40.021Z,18.30
2022-10-22T21:18:07.379Z,19.47
2022-10-22T21:20:34.008Z,16.92
2022-10-22T21:23:00.515Z,17.50
2022-10-22T21:25:27.054Z,20.80
2022-10-22T21:27:53.554Z,20.43
2022-10-22T21:30:20.063Z,16.67
2022-10-22T21:32:46.621Z,18.70
2022-10-22T21:35:13.163Z,17.03
2022-10-22T21:37:39.887Z,17.27
2022-10-22T21:40:07.344Z,17.10
2022-10-22T21:42:33.989Z,16.30
2022-10-22T21:45:00.561Z,18.13
2022-10-22T21:47:27.131Z,16.42
2022-10-22T21:49:53.865Z,15.90
2022-10-22T21:52:20.357Z,18.38
2022-10-22T21:54:46.884Z,19.07
2022-10-22T21:57:13.411Z,17.97
2022-10-22T21:59:40.009Z,20.00
2022-10-22T22:02:06.650Z,20.88
2022-10-22T22:04:33.312Z,18.48
2022-10-22T22:06:59.842Z,19.48
2022-10-22T22:09:26.388Z,19.53
2022-10-22T22:11:52.889Z,17.57
2022-10-22T22:14:19.487Z,18.73
2022-10-22T22:16:45.991Z,19.90
2022-10-22T22:19:12.558Z,16.13
2022-10-22T22:21:40.499Z,18.90
2022-10-22T22:24:09.019Z,16.10
2022-10-22T22:26:36.273Z,16.48
2022-10-22T22:29:03.028Z,16.90
2022-10-22T22:31:32.409Z,17.75
2022-10-22T22:34:06.555Z,17.50
2022-10-22T22:36:36.099Z,16.67
2022-10-22T22:39:04.724Z,17.27
2022-10-22T22:41:31.434Z,20.13
2022-10-22T22:43:57.966Z,17.98
2022-10-22T22:46:24.515Z,17.70
2022-10-22T22:48:51.098Z,19.23
2022-10-22T22:51:17.787Z,16.90
2022-10-22T22:53:44.656Z,16.92
2022-10-22T22:56:25.502Z,19.70
2022-10-22T22:58:52.132Z,17.95
2022-10-22T23:01:24.429Z,18.30
2022-10-22T23:03:57.932Z,17.63
2022-10-22T23:06:27.225Z,18.15
2022-10-22T23:08:54.579Z,18.98
2022-10-22T23:16:20.794Z,18.13
2022-10-22T23:18:48.965Z,17.85
2022-10-22T23:21:20.586Z,19.48
2022-10-22T23:23:52.632Z,16.45
2022-10-22T23:26:22.123Z,20.25
2022-10-22T23:28:49.234Z,16.17
2022-10-22T23:31:17.521Z,17.60
2022-10-22T23:33:44.647Z,15.68
2022-10-22T23:36:12.270Z,22.20
2022-10-22T23:38:40.094Z,16.92
2022-10-22T23:41:07.297Z,19.63
2022-10-22T23:43:37.885Z,17.30
2022-10-22T23:46:10.521Z,16.60
2022-10-22T23:48:39.185Z,15.80
2022-10-22T23:51:11.862Z,16.27
2022-10-22T23:53:39.175Z,15.75
2022-10-22T23:56:08.244Z,19.38
2022-10-22T23:58:35.454Z,20.00
